EDVE

Braunschweig Airport

Airport
ICAO code
EDVE
IATA Code
BWE
Summary
ICAO Region
EUR
ICAO Territory
Location

Braunschweig, Lower Saxony

Serving
Braunschweig
Elevation
295 ft
Coordinates
52° 19' 9" N , 10° 33' 12" E
KCC
Cfb
Metar
Observation
EDVE 151320Z 30007KT 9999 VCTS SCT045CB 27/17 Q1003
Station
Braunschweig
Date/Time
2022-08-15 13:20:00
Wind direction
300°
Wind speed
07 kts
Lowest cloud amount
scattered clouds
Temperature
27°C
Dew point
17°C
Humidity
54%
QNH
1003 hPa
Weather condition
in vicinity: thunderstorm

Description

Airport on the northern edge of Braunschweig, Germany.

Climatology

Temperate Marine climate/Oceanic climate (Köppen climate classification Cfb) - Moderately cool summer and comparatively warm winter.

Runways

Designator Length Width Surface Rops
08R/26L 900 30 GRS No/No
8/26 1680 30 ASP Yes/Yes

Airport map

Aerial View

SKYbrary Partners:

Safety knowledge contributed by: